Time;durP1;ratioP1;P1;durP2;ratioP2;P2;SDS_P1;SDS_P2;PMS_P1;PMS_P2;Temp;Humidity;BMP_temperature;BMP_pressure;BME280_temperature;BME280_humidity;BME280_pressure;Samples;Min_cycle;Max_cycle;Signal;HPM_P1;HPM_P2
2023/12/16 00:00:31;;;;;;;7.07;4.35;;;;;;;2.19;100.00;100525.03;5114717;28;20020;-72
2023/12/16 00:02:56;;;;;;;6.65;3.80;;;;;;;2.30;100.00;100529.63;5091414;28;20028;-72
2023/12/16 00:05:22;;;;;;;6.38;4.30;;;;;;;2.33;100.00;100542.06;5094150;28;20109;-72
2023/12/16 00:07:47;;;;;;;7.32;4.80;;;;;;;2.21;100.00;100531.13;5094229;28;20423;-72
2023/12/16 00:10:13;;;;;;;5.70;4.30;;;;;;;2.13;100.00;100540.69;5109696;28;20096;-72
2023/12/16 00:12:39;;;;;;;8.60;4.53;;;;;;;1.92;100.00;100551.38;5114473;28;20016;-72
2023/12/16 00:15:08;;;;;;;6.30;3.92;;;;;;;1.78;100.00;100550.88;5114597;28;20045;-72
2023/12/16 00:17:33;;;;;;;6.63;4.93;;;;;;;1.89;100.00;100546.38;5114275;28;20030;-72
2023/12/16 00:19:59;;;;;;;7.40;4.82;;;;;;;1.95;100.00;100552.81;5102561;28;20028;-72
2023/12/16 00:22:25;;;;;;;7.45;4.95;;;;;;;1.83;100.00;100552.88;5090987;28;20035;-72
2023/12/16 00:24:50;;;;;;;8.73;5.57;;;;;;;1.84;100.00;100551.78;5113699;28;20088;-72
2023/12/16 00:27:16;;;;;;;7.65;4.80;;;;;;;1.84;100.00;100559.25;5095908;28;20040;-72
2023/12/16 00:29:41;;;;;;;7.07;4.68;;;;;;;1.74;100.00;100569.00;5114272;28;20102;-72
2023/12/16 00:32:07;;;;;;;6.47;4.32;;;;;;;1.61;100.00;100566.56;5083263;28;20047;-72
2023/12/16 00:34:33;;;;;;;5.28;3.85;;;;;;;1.76;100.00;100569.59;5093600;28;20019;-72
2023/12/16 00:37:00;;;;;;;5.40;3.97;;;;;;;1.91;100.00;100559.91;5080269;28;20024;-72
2023/12/16 00:39:25;;;;;;;5.55;3.80;;;;;;;1.95;100.00;100575.72;5093641;28;20036;-72
2023/12/16 00:41:51;;;;;;;5.80;3.85;;;;;;;1.96;100.00;100577.38;5075388;28;20032;-71
2023/12/16 00:44:16;;;;;;;42.15;13.68;;;;;;;1.99;100.00;100576.06;5090526;28;20089;-71
2023/12/16 00:46:42;;;;;;;30.45;11.55;;;;;;;1.86;100.00;100584.66;5113923;28;20038;-72
2023/12/16 00:49:08;;;;;;;15.57;6.15;;;;;;;1.86;100.00;100584.66;5113747;28;20024;-72
2023/12/16 00:51:33;;;;;;;8.75;4.60;;;;;;;1.69;100.00;100591.00;5113755;28;20028;-71
2023/12/16 00:53:59;;;;;;;7.65;4.72;;;;;;;1.84;100.00;100592.34;5092932;28;20419;-71
2023/12/16 00:56:24;;;;;;;7.43;4.80;;;;;;;1.98;100.00;100593.69;5109512;28;20027;-71
2023/12/16 00:58:50;;;;;;;7.18;4.55;;;;;;;1.89;100.00;100584.16;5074881;28;20032;-71
2023/12/16 01:01:15;;;;;;;7.22;4.57;;;;;;;2.00;100.00;100593.47;5093013;28;20031;-71
2023/12/16 01:03:41;;;;;;;6.03;4.47;;;;;;;1.84;100.00;100581.31;5074571;28;20484;-71
2023/12/16 01:06:06;;;;;;;8.15;5.18;;;;;;;1.92;100.00;100580.88;5089524;28;20050;-71
2023/12/16 01:08:33;;;;;;;7.03;4.75;;;;;;;1.92;100.00;100578.13;5095018;28;20484;-71
2023/12/16 01:10:59;;;;;;;7.43;4.57;;;;;;;2.13;100.00;100584.00;5078345;28;20023;-71
2023/12/16 01:13:24;;;;;;;7.13;4.32;;;;;;;2.06;100.00;100593.31;5092932;28;20030;-71
2023/12/16 01:15:50;;;;;;;7.28;3.88;;;;;;;1.98;100.00;100579.91;5104674;28;20114;-71
2023/12/16 01:18:16;;;;;;;6.22;3.70;;;;;;;2.08;100.00;100585.59;5092831;28;20032;-71
2023/12/16 01:20:42;;;;;;;7.55;5.18;;;;;;;2.17;100.00;100585.16;5074621;28;20030;-71
2023/12/16 01:23:07;;;;;;;7.28;4.65;;;;;;;2.16;100.00;100587.09;5074225;28;20540;-71
2023/12/16 01:25:33;;;;;;;6.13;4.20;;;;;;;2.15;100.00;100576.28;5092397;28;20106;-71
2023/12/16 01:27:58;;;;;;;7.55;4.75;;;;;;;2.11;100.00;100573.19;5074225;28;20024;-71
2023/12/16 01:30:24;;;;;;;9.10;5.18;;;;;;;2.14;100.00;100577.38;5108724;28;20031;-71
2023/12/16 01:32:51;;;;;;;8.18;5.07;;;;;;;2.13;100.00;100581.25;5101715;28;20103;-71
2023/12/16 01:35:17;;;;;;;7.95;5.05;;;;;;;2.18;100.00;100584.91;5074297;28;20028;-71
2023/12/16 01:37:42;;;;;;;13.73;7.03;;;;;;;2.13;100.00;100573.81;5074237;28;20035;-71
2023/12/16 01:40:08;;;;;;;11.05;5.93;;;;;;;2.17;100.00;100591.53;5092358;28;20405;-71
2023/12/16 01:42:34;;;;;;;13.40;7.82;;;;;;;2.05;100.00;100574.22;5092136;28;20024;-71
2023/12/16 01:44:59;;;;;;;13.88;7.40;;;;;;;2.03;100.00;100584.69;5102241;28;20043;-71
2023/12/16 01:47:26;;;;;;;9.32;5.88;;;;;;;2.06;100.00;100584.16;5112704;28;20590;-71
2023/12/16 01:49:52;;;;;;;5.50;3.70;;;;;;;1.78;100.00;100589.50;5098820;28;20027;-70
2023/12/16 01:52:18;;;;;;;7.18;4.70;;;;;;;1.68;100.00;100594.81;5092373;28;20081;-71
2023/12/16 01:54:44;;;;;;;6.90;4.50;;;;;;;1.71;100.00;100587.97;5092187;28;20039;-71
2023/12/16 01:57:10;;;;;;;5.68;4.53;;;;;;;1.25;100.00;100589.63;5089351;28;20035;-70
2023/12/16 01:59:35;;;;;;;5.63;3.90;;;;;;;1.31;100.00;100600.75;5112044;28;20024;-70
2023/12/16 02:02:03;;;;;;;5.60;3.80;;;;;;;1.21;100.00;100591.22;5112407;28;20478;-70
2023/12/16 02:04:28;;;;;;;4.05;3.05;;;;;;;0.92;100.00;100601.34;5111484;28;20039;-70
2023/12/16 02:06:54;;;;;;;3.30;2.75;;;;;;;0.84;100.00;100602.53;5093862;28;20081;-70
2023/12/16 02:09:21;;;;;;;3.72;2.88;;;;;;;0.66;100.00;100611.78;5112296;28;20499;-70
2023/12/16 02:11:47;;;;;;;4.03;2.92;;;;;;;1.05;100.00;100600.22;5094009;28;20034;-70
2023/12/16 02:14:12;;;;;;;7.25;3.58;;;;;;;1.00;100.00;100608.41;5112130;28;20020;-70
2023/12/16 02:16:38;;;;;;;7.32;3.95;;;;;;;0.64;100.00;100616.69;5108964;28;20027;-70
2023/12/16 02:19:10;;;;;;;4.97;4.10;;;;;;;0.67;100.00;100630.84;5091252;28;20084;-69
2023/12/16 02:21:36;;;;;;;7.40;5.07;;;;;;;0.62;100.00;100621.63;5091709;28;20103;-69
2023/12/16 02:24:01;;;;;;;7.53;4.50;;;;;;;0.78;100.00;100625.56;5083770;28;20135;-69
2023/12/16 02:26:26;;;;;;;6.20;4.88;;;;;;;0.74;100.00;100619.69;5109891;28;20039;-69
2023/12/16 02:28:52;;;;;;;7.15;4.90;;;;;;;0.73;100.00;100633.72;5111692;28;20035;-69
2023/12/16 02:31:17;;;;;;;7.88;6.13;;;;;;;0.63;100.00;100635.16;5093260;28;20046;-70
2023/12/16 02:33:44;;;;;;;6.18;5.32;;;;;;;0.51;100.00;100632.38;5111350;28;20507;-69
2023/12/16 02:36:09;;;;;;;7.05;5.55;;;;;;;0.38;100.00;100629.88;5093178;28;20488;-70
2023/12/16 02:38:35;;;;;;;7.80;5.57;;;;;;;0.41;100.00;100633.00;5111228;28;20042;-70
2023/12/16 02:41:00;;;;;;;5.30;3.95;;;;;;;0.58;100.00;100645.22;5101406;28;20553;-71
2023/12/16 02:43:26;;;;;;;3.40;2.90;;;;;;;0.48;100.00;100637.53;5111142;28;20513;-70
2023/12/16 02:45:51;;;;;;;3.28;2.90;;;;;;;0.61;100.00;100637.31;5111307;28;20015;-70
2023/12/16 02:48:16;;;;;;;5.63;3.50;;;;;;;0.47;100.00;100646.88;5111342;28;20024;-70
2023/12/16 02:50:42;;;;;;;5.18;4.38;;;;;;;0.36;100.00;100641.16;5092941;28;20027;-70
2023/12/16 02:53:07;;;;;;;6.07;4.93;;;;;;;0.29;100.00;100654.16;5092475;28;20027;-70
2023/12/16 02:55:34;;;;;;;3.63;3.25;;;;;;;0.26;100.00;100660.16;5110749;28;20051;-70
2023/12/16 02:57:59;;;;;;;4.72;2.78;;;;;;;0.29;100.00;100656.91;5073367;28;20036;-70
2023/12/16 03:00:25;;;;;;;4.70;2.70;;;;;;;0.34;100.00;100657.03;5090714;28;20027;-70
2023/12/16 03:02:51;;;;;;;3.10;2.45;;;;;;;0.17;100.00;100665.13;5090725;28;20024;-70
2023/12/16 03:05:16;;;;;;;3.72;2.67;;;;;;;0.16;100.00;100657.13;5090621;28;20048;-70
2023/12/16 03:07:42;;;;;;;6.30;3.30;;;;;;;0.01;100.00;100649.31;5090819;28;20508;-71
2023/12/16 03:10:07;;;;;;;4.30;2.85;;;;;;;0.21;100.00;100654.50;5090678;28;20553;-70
2023/12/16 03:12:33;;;;;;;4.03;2.92;;;;;;;0.22;100.00;100659.78;5072531;28;20020;-71
2023/12/16 03:14:58;;;;;;;3.95;3.17;;;;;;;0.25;100.00;100651.03;5096378;28;20468;-71
2023/12/16 03:17:23;;;;;;;4.15;3.25;;;;;;;0.33;100.00;100658.13;5090640;28;20027;-70
2023/12/16 03:19:49;;;;;;;3.63;2.97;;;;;;;0.35;100.00;100658.72;5090629;28;20024;-71
2023/12/16 03:22:14;;;;;;;5.75;3.88;;;;;;;0.47;100.00;100663.38;5090544;28;20031;-71
2023/12/16 03:24:40;;;;;;;4.35;3.75;;;;;;;0.20;100.00;100669.34;5090681;28;20471;-71
2023/12/16 03:27:05;;;;;;;4.45;3.08;;;;;;;-0.13;100.00;100665.19;5094416;28;20024;-71
2023/12/16 03:29:31;;;;;;;4.40;3.22;;;;;;;0.16;100.00;100687.41;5105277;28;20040;-73
2023/12/16 03:31:57;;;;;;;10.77;7.00;;;;;;;0.36;100.00;100676.94;5113959;28;20035;-73
2023/12/16 03:34:22;;;;;;;16.50;9.25;;;;;;;0.48;100.00;100692.59;5096234;28;20020;-73
2023/12/16 03:36:48;;;;;;;20.15;10.40;;;;;;;0.44;100.00;100686.75;5114012;28;20035;-73
2023/12/16 03:39:13;;;;;;;14.70;8.45;;;;;;;0.47;100.00;100693.69;5096196;28;20473;-73
2023/12/16 03:41:39;;;;;;;15.13;9.02;;;;;;;0.59;100.00;100704.72;5096118;28;20412;-73
2023/12/16 03:44:05;;;;;;;12.02;7.13;;;;;;;0.73;100.00;100703.41;5091242;28;20051;-73
2023/12/16 03:46:30;;;;;;;13.63;8.43;;;;;;;0.67;100.00;100707.13;5094043;28;20032;-73
2023/12/16 03:48:56;;;;;;;10.35;7.70;;;;;;;0.73;100.00;100713.59;5076089;28;20032;-73
2023/12/16 03:51:22;;;;;;;7.18;5.40;;;;;;;0.59;100.00;100716.56;5093881;28;20024;-73
2023/12/16 03:53:47;;;;;;;8.50;4.63;;;;;;;0.57;100.00;100721.47;5093984;28;20035;-73
2023/12/16 03:56:13;;;;;;;6.13;4.82;;;;;;;0.75;100.00;100719.69;5075766;28;20032;-73
2023/12/16 03:58:38;;;;;;;9.80;5.20;;;;;;;0.91;100.00;100727.25;5093838;28;20028;-74
2023/12/16 04:01:04;;;;;;;8.70;6.13;;;;;;;0.91;100.00;100720.91;5093437;28;20084;-73
2023/12/16 04:03:30;;;;;;;11.55;7.07;;;;;;;0.97;100.00;100711.66;5093624;28;20085;-73
2023/12/16 04:05:56;;;;;;;14.70;7.03;;;;;;;1.08;100.00;100718.22;5093506;28;20516;-72
2023/12/16 04:08:21;;;;;;;8.57;6.07;;;;;;;1.13;100.00;100729.41;5093758;28;20056;-73
2023/12/16 04:10:47;;;;;;;9.52;6.63;;;;;;;1.03;100.00;100732.75;5093541;28;20441;-72
2023/12/16 04:13:14;;;;;;;10.07;6.35;;;;;;;1.15;100.00;100724.47;5112348;28;20107;-73
2023/12/16 04:15:40;;;;;;;9.43;6.18;;;;;;;1.23;100.00;100743.41;5113823;28;20023;-73
2023/12/16 04:18:05;;;;;;;11.57;6.95;;;;;;;1.20;100.00;100737.53;5113833;28;20028;-74
2023/12/16 04:20:31;;;;;;;9.90;6.90;;;;;;;1.33;100.00;100741.97;5079517;28;20023;-73
2023/12/16 04:22:56;;;;;;;8.50;5.88;;;;;;;1.23;100.00;100745.31;5094315;28;20032;-73
2023/12/16 04:25:22;;;;;;;9.60;6.47;;;;;;;1.30;100.00;100748.78;5104421;28;20475;-73
2023/12/16 04:27:47;;;;;;;9.82;7.10;;;;;;;1.26;100.00;100753.94;5093368;28;20032;-73
2023/12/16 04:30:13;;;;;;;12.23;7.60;;;;;;;1.33;100.00;100761.25;5093147;28;20055;-73
2023/12/16 04:32:38;;;;;;;14.50;10.05;;;;;;;1.17;100.00;100760.91;5074996;28;20059;-73
2023/12/16 04:35:04;;;;;;;12.63;7.38;;;;;;;1.23;100.00;100770.97;5095058;28;20668;-73
2023/12/16 04:37:30;;;;;;;16.15;10.18;;;;;;;1.31;100.00;100771.66;5099495;28;20120;-73
2023/12/16 04:39:55;;;;;;;25.35;15.02;;;;;;;1.25;100.00;100773.47;5093688;28;20024;-68
2023/12/16 04:42:21;;;;;;;24.17;15.35;;;;;;;1.28;100.00;100775.78;5092878;28;20024;-67
2023/12/16 04:44:46;;;;;;;24.70;13.40;;;;;;;1.30;100.00;100784.63;5093605;28;20027;-67
2023/12/16 04:47:12;;;;;;;18.63;10.93;;;;;;;1.30;100.00;100778.28;5077252;28;20024;-67
2023/12/16 04:49:39;;;;;;;23.77;12.65;;;;;;;1.16;100.00;100792.28;5113636;28;20066;-67
2023/12/16 04:52:05;;;;;;;19.05;10.57;;;;;;;1.26;100.00;100792.53;5109946;28;20484;-67
2023/12/16 04:54:30;;;;;;;15.38;9.77;;;;;;;1.19;100.00;100791.81;5093717;28;20031;-67
2023/12/16 04:56:56;;;;;;;15.25;9.02;;;;;;;1.13;100.00;100795.53;5093170;28;20511;-67
2023/12/16 04:59:21;;;;;;;26.02;13.57;;;;;;;0.95;100.00;100783.53;5093431;28;20484;-67
2023/12/16 05:01:47;;;;;;;15.32;10.25;;;;;;;1.06;100.00;100786.53;5093007;28;20492;-67
2023/12/16 05:04:12;;;;;;;13.80;8.98;;;;;;;1.11;100.00;100803.22;5092800;28;20044;-68
2023/12/16 05:06:38;;;;;;;20.50;11.80;;;;;;;1.17;100.00;100799.47;5092758;28;20020;-68
2023/12/16 05:09:09;;;;;;;22.73;12.45;;;;;;;1.22;100.00;100796.88;5092585;28;20492;-69
2023/12/16 05:11:34;;;;;;;16.00;10.02;;;;;;;1.10;100.00;100805.13;5095403;28;20051;-68
2023/12/16 05:14:00;;;;;;;19.10;11.13;;;;;;;1.05;100.00;100807.75;5095109;28;20015;-68
2023/12/16 05:16:26;;;;;;;18.50;10.85;;;;;;;1.03;100.00;100809.06;5113157;28;20043;-69
2023/12/16 05:18:51;;;;;;;16.85;10.18;;;;;;;1.05;100.00;100805.00;5113248;28;20464;-69
2023/12/16 05:21:17;;;;;;;16.90;10.25;;;;;;;1.13;100.00;100803.81;5113041;28;20031;-69
2023/12/16 05:23:42;;;;;;;19.15;10.00;;;;;;;1.01;100.00;100802.97;5106921;28;20024;-69
2023/12/16 05:26:08;;;;;;;30.15;9.90;;;;;;;1.13;100.00;100809.31;5093893;28;20039;-69
2023/12/16 05:28:33;;;;;;;12.15;8.55;;;;;;;1.23;100.00;100812.31;5094736;28;20027;-69
2023/12/16 05:30:59;;;;;;;9.73;7.10;;;;;;;1.28;100.00;100816.28;5090896;28;20507;-69
2023/12/16 05:33:24;;;;;;;9.75;6.53;;;;;;;1.23;100.00;100817.00;5098858;28;20020;-69
2023/12/16 05:35:49;;;;;;;10.50;6.90;;;;;;;1.35;100.00;100817.81;5106177;28;20028;-69
2023/12/16 05:38:15;;;;;;;10.10;6.63;;;;;;;1.32;100.00;100822.97;5092557;28;20030;-69
2023/12/16 05:40:40;;;;;;;9.45;6.55;;;;;;;1.39;100.00;100830.06;5092664;28;20029;-70
2023/12/16 05:43:07;;;;;;;18.92;13.25;;;;;;;1.19;100.00;100824.88;5092491;28;20020;-69
2023/12/16 05:45:33;;;;;;;36.08;22.02;;;;;;;0.88;100.00;100826.91;5092464;28;20451;-69
2023/12/16 05:47:58;;;;;;;37.85;21.58;;;;;;;0.97;100.00;100831.00;5097802;28;20107;-69
2023/12/16 05:50:24;;;;;;;46.05;26.02;;;;;;;1.20;100.00;100834.84;5112760;28;20026;-74
2023/12/16 05:52:49;;;;;;;51.78;30.35;;;;;;;1.06;100.00;100825.13;5094221;28;20042;-73
2023/12/16 05:55:15;;;;;;;74.30;34.90;;;;;;;0.79;100.00;100839.34;5105008;28;20051;-74
2023/12/16 05:57:40;;;;;;;101.07;45.03;;;;;;;0.77;100.00;100833.22;5091945;28;20028;-74
2023/12/16 06:00:08;;;;;;;90.05;40.55;;;;;;;1.01;100.00;100847.06;5094036;28;20042;-74
2023/12/16 06:02:34;;;;;;;86.53;36.47;;;;;;;0.62;100.00;100851.03;5101633;28;20038;-74
2023/12/16 06:04:59;;;;;;;85.07;37.58;;;;;;;0.78;100.00;100849.50;5091060;28;20048;-74
2023/12/16 06:07:25;;;;;;;86.68;43.08;;;;;;;0.84;100.00;100856.84;5108861;28;20045;-74
2023/12/16 06:09:50;;;;;;;83.43;41.22;;;;;;;0.73;100.00;100856.81;5112225;28;20027;-76
2023/12/16 06:12:15;;;;;;;67.50;34.53;;;;;;;0.45;100.00;100863.78;5112114;28;20477;-80
2023/12/16 06:14:41;;;;;;;55.22;28.95;;;;;;;0.58;100.00;100873.78;5112311;28;20019;-82
2023/12/16 06:17:07;;;;;;;52.70;29.17;;;;;;;0.53;100.00;100874.47;5094202;28;20039;-80
2023/12/16 06:19:32;;;;;;;55.80;31.13;;;;;;;0.72;100.00;100880.75;5079167;28;20019;-80
2023/12/16 06:21:58;;;;;;;66.30;36.63;;;;;;;0.78;100.00;100885.31;5106582;28;20089;-76
2023/12/16 06:24:23;;;;;;;64.57;39.50;;;;;;;0.91;100.00;100887.03;5073734;28;20032;-76
2023/12/16 06:26:48;;;;;;;65.60;40.85;;;;;;;0.84;100.00;100900.06;5112747;28;20047;-78
2023/12/16 06:29:14;;;;;;;74.03;40.35;;;;;;;1.04;100.00;100897.03;5112749;28;20568;-79
2023/12/16 06:31:39;;;;;;;94.90;42.67;;;;;;;1.09;100.00;100886.13;5093144;28;20594;-78
2023/12/16 06:34:05;;;;;;;84.95;36.28;;;;;;;1.21;100.00;100904.59;5091844;28;20026;-78
2023/12/16 06:36:30;;;;;;;35.72;18.63;;;;;;;1.19;100.00;100909.53;5093857;28;20027;-78
2023/12/16 06:38:56;;;;;;;42.08;21.33;;;;;;;0.74;100.00;100916.34;5094864;28;20112;-81
2023/12/16 06:41:21;;;;;;;38.28;19.17;;;;;;;0.79;100.00;100922.84;5099140;28;20053;-80
2023/12/16 06:43:47;;;;;;;36.58;18.65;;;;;;;0.73;100.00;100920.19;5064468;28;20032;-81
2023/12/16 06:46:12;;;;;;;59.03;32.20;;;;;;;0.51;100.00;100937.19;5098841;28;20402;-82
2023/12/16 06:48:39;;;;;;;63.25;35.55;;;;;;;0.59;100.00;100933.28;5103133;28;20491;-79
2023/12/16 06:51:04;;;;;;;62.40;38.33;;;;;;;0.66;100.00;100943.13;5081142;28;20107;-81
2023/12/16 06:53:30;;;;;;;66.85;36.25;;;;;;;0.76;100.00;100937.06;5090856;28;20027;-77
2023/12/16 06:55:56;;;;;;;67.75;38.25;;;;;;;0.96;100.00;100947.78;5089468;28;20470;-85
2023/12/16 06:58:21;;;;;;;70.35;39.30;;;;;;;0.94;100.00;100960.97;5102709;28;20023;-72
2023/12/16 07:00:47;;;;;;;56.38;32.67;;;;;;;0.87;100.00;100960.22;5092568;28;20084;-74
2023/12/16 07:03:13;;;;;;;51.65;30.95;;;;;;;1.11;100.00;100969.41;5080389;28;20147;-71
2023/12/16 07:05:39;;;;;;;104.80;68.10;;;;;;;1.22;100.00;100977.94;5076577;28;20168;-75
2023/12/16 07:08:04;;;;;;;105.10;68.03;;;;;;;1.28;100.00;100976.16;5093536;28;20028;-73
2023/12/16 07:10:29;;;;;;;62.22;42.83;;;;;;;1.40;100.00;100988.06;5102256;28;20028;-77
2023/12/16 07:12:55;;;;;;;50.95;28.40;;;;;;;1.47;100.00;100988.81;5113935;28;20027;-75
2023/12/16 07:15:20;;;;;;;77.97;40.08;;;;;;;1.54;100.00;100986.78;5115604;28;20031;-82
2023/12/16 07:17:46;;;;;;;118.40;56.92;;;;;;;1.52;100.00;100988.09;5079615;28;20024;-81
2023/12/16 07:20:13;;;;;;;73.68;41.90;;;;;;;1.53;100.00;101001.63;5103403;28;20031;-80
2023/12/16 07:22:39;;;;;;;94.57;46.28;;;;;;;1.56;100.00;100996.72;5087321;28;20019;-81
2023/12/16 07:25:05;;;;;;;91.60;47.53;;;;;;;1.54;100.00;101002.50;5103123;28;20534;-77
2023/12/16 07:27:30;;;;;;;82.20;44.50;;;;;;;1.64;100.00;101011.03;5091728;28;20038;-76
2023/12/16 07:29:56;;;;;;;89.03;49.47;;;;;;;1.61;100.00;101010.66;5113803;28;20031;-76
2023/12/16 07:32:23;;;;;;;96.43;52.50;;;;;;;1.49;100.00;101019.75;5114866;28;20027;-74
2023/12/16 07:34:49;;;;;;;96.55;49.45;;;;;;;1.51;100.00;101025.88;5095927;28;20101;-73
2023/12/16 07:37:15;;;;;;;83.65;48.10;;;;;;;0.94;100.00;101018.81;5082917;28;20039;-74
2023/12/16 07:39:41;;;;;;;88.38;46.25;;;;;;;0.79;100.00;101023.91;5111229;28;20031;-80
2023/12/16 07:42:06;;;;;;;92.55;44.40;;;;;;;0.73;100.00;101030.38;5093501;28;20031;-77
2023/12/16 07:44:32;;;;;;;85.32;49.17;;;;;;;0.60;100.00;101012.91;5103653;28;20019;-80
2023/12/16 07:46:57;;;;;;;58.60;37.08;;;;;;;0.45;100.00;101024.31;5114381;28;20031;-83
2023/12/16 07:49:25;;;;;;;58.10;35.90;;;;;;;0.48;100.00;101023.84;5111172;28;20038;-72
2023/12/16 07:51:54;;;;;;;47.38;31.13;;;;;;;0.54;100.00;101031.22;5114338;28;20042;-74
2023/12/16 07:54:24;;;;;;;39.30;26.55;;;;;;;0.62;100.00;101035.56;5097254;28;20015;-73
2023/12/16 07:56:50;;;;;;;38.22;25.73;;;;;;;0.83;100.00;101041.66;5093965;28;20395;-73
2023/12/16 07:59:15;;;;;;;37.97;25.70;;;;;;;0.76;100.00;101040.91;5080554;28;20047;-72
2023/12/16 08:01:41;;;;;;;53.90;30.40;;;;;;;0.64;100.00;101052.69;5108507;28;20035;-73
2023/12/16 08:04:06;;;;;;;50.58;28.52;;;;;;;0.89;100.00;101056.41;5075998;28;20047;-75
2023/12/16 08:06:32;;;;;;;47.95;29.45;;;;;;;1.09;100.00;101059.75;5098130;28;20463;-72
2023/12/16 08:08:58;;;;;;;66.43;36.75;;;;;;;0.87;100.00;101053.91;5102768;28;20110;-80
2023/12/16 08:11:23;;;;;;;73.13;39.42;;;;;;;1.00;100.00;101063.06;5106487;28;20512;-74
2023/12/16 08:13:49;;;;;;;39.05;25.25;;;;;;;0.79;100.00;101066.09;5111192;28;20015;-73
2023/12/16 08:16:14;;;;;;;31.10;19.88;;;;;;;0.62;100.00;101071.38;5095569;28;20023;-72
2023/12/16 08:18:40;;;;;;;31.63;19.85;;;;;;;0.86;100.00;101078.94;5103141;28;20019;-72
2023/12/16 08:21:05;;;;;;;30.48;18.52;;;;;;;0.76;100.00;101073.97;5108914;28;20809;-71
2023/12/16 08:23:31;;;;;;;31.73;20.50;;;;;;;0.76;100.00;101079.47;5095937;28;20063;-72
2023/12/16 08:25:56;;;;;;;42.05;26.38;;;;;;;0.73;100.00;101088.22;5107858;28;20016;-72
2023/12/16 08:28:23;;;;;;;53.65;28.85;;;;;;;0.61;100.00;101088.97;5095434;28;20035;-70
2023/12/16 08:30:50;;;;;;;51.88;30.88;;;;;;;0.45;100.00;101092.31;5083545;28;20031;-73
2023/12/16 08:33:16;;;;;;;69.97;43.30;;;;;;;0.55;100.00;101076.09;5076638;28;20030;-73
2023/12/16 08:35:44;;;;;;;91.35;55.13;;;;;;;0.65;100.00;101083.81;5089300;28;20019;-69
2023/12/16 08:38:10;;;;;;;41.90;26.52;;;;;;;0.61;100.00;101085.34;5076413;28;20030;-70
2023/12/16 08:40:35;;;;;;;29.17;19.38;;;;;;;0.44;100.00;101087.88;5085052;28;20019;-71
2023/12/16 08:43:01;;;;;;;36.97;22.35;;;;;;;0.64;100.00;101094.00;5102097;28;20024;-70
2023/12/16 08:45:26;;;;;;;67.88;30.08;;;;;;;0.67;100.00;101088.03;5097207;28;20040;-69
2023/12/16 08:47:52;;;;;;;42.67;24.08;;;;;;;0.77;100.00;101081.97;5107769;28;20024;-70
2023/12/16 08:50:17;;;;;;;62.63;31.00;;;;;;;0.66;100.00;101086.34;5095882;28;20023;-71
2023/12/16 08:52:43;;;;;;;124.50;51.40;;;;;;;0.68;100.00;101095.22;5108986;28;20103;-72
2023/12/16 08:55:09;;;;;;;128.73;51.40;;;;;;;0.70;100.00;101095.00;5110937;28;20035;-74
2023/12/16 08:57:34;;;;;;;85.95;43.35;;;;;;;0.71;100.00;101093.94;5095111;28;20034;-72
2023/12/16 08:59:59;;;;;;;69.43;40.50;;;;;;;0.91;100.00;101106.66;5107426;28;21291;-74
2023/12/16 09:02:25;;;;;;;75.47;42.13;;;;;;;0.75;100.00;101114.44;5096574;28;20028;-73
2023/12/16 09:04:51;;;;;;;73.28;42.10;;;;;;;0.84;100.00;101098.44;5082300;28;20044;-72
2023/12/16 09:07:17;;;;;;;71.45;38.88;;;;;;;1.01;100.00;101098.66;5103940;28;20036;-74
2023/12/16 09:09:44;;;;;;;72.80;39.92;;;;;;;0.86;100.00;101096.31;5101619;28;20392;-73
2023/12/16 09:12:10;;;;;;;64.57;35.50;;;;;;;0.50;100.00;101082.28;5095102;28;20038;-74
2023/12/16 09:14:37;;;;;;;58.58;37.45;;;;;;;0.74;100.00;101089.88;5100814;28;20035;-74
2023/12/16 09:17:02;;;;;;;58.70;35.10;;;;;;;0.85;100.00;101075.34;5075386;28;20024;-77
2023/12/16 09:19:28;;;;;;;65.32;37.83;;;;;;;1.02;100.00;101088.47;5088674;28;20031;-78
2023/12/16 09:21:53;;;;;;;66.20;38.63;;;;;;;0.92;100.00;101081.59;5111689;28;20047;-73
2023/12/16 09:24:19;;;;;;;85.22;47.92;;;;;;;1.15;100.00;101077.28;5093833;28;20024;-76
2023/12/16 09:26:45;;;;;;;106.68;59.60;;;;;;;1.29;100.00;101079.84;5103032;28;20028;-84
2023/12/16 09:29:13;;;;;;;112.22;61.40;;;;;;;1.29;100.00;101074.34;5091993;28;20042;-78
2023/12/16 09:31:39;;;;;;;85.60;49.92;;;;;;;1.28;100.00;101064.41;5074240;28;20059;-82
2023/12/16 09:34:04;;;;;;;69.85;41.05;;;;;;;1.01;100.00;101068.34;5074239;28;20081;-75
2023/12/16 09:36:30;;;;;;;74.82;41.67;;;;;;;0.90;100.00;101088.41;5092178;28;20127;-75
2023/12/16 09:38:57;;;;;;;80.28;42.15;;;;;;;0.92;100.00;101092.63;5092671;28;20095;-75
2023/12/16 09:41:33;;;;;;;66.38;38.55;;;;;;;1.12;100.00;101097.06;5093544;28;20028;-69
2023/12/16 09:44:00;;;;;;;70.80;36.58;;;;;;;1.00;100.00;101102.47;5098405;28;20035;-71
2023/12/16 09:46:28;;;;;;;67.82;40.15;;;;;;;1.13;100.00;101101.50;5098403;28;20043;-69
2023/12/16 09:48:55;;;;;;;50.45;30.73;;;;;;;1.20;100.00;101099.47;5097337;28;20084;-70
2023/12/16 09:51:21;;;;;;;42.63;26.98;;;;;;;1.25;100.00;101101.53;5086559;28;20439;-70
2023/12/16 09:53:48;;;;;;;47.38;27.38;;;;;;;1.08;100.00;101096.66;5086852;28;20030;-69
2023/12/16 09:56:15;;;;;;;51.78;28.17;;;;;;;0.92;100.00;101089.03;5075532;28;20110;-71
2023/12/16 09:58:44;;;;;;;45.15;26.80;;;;;;;0.72;100.00;101086.50;5098445;28;20115;-70
2023/12/16 10:01:10;;;;;;;46.90;28.75;;;;;;;0.68;100.00;101084.22;5097599;28;20024;-69
2023/12/16 10:03:40;;;;;;;50.53;29.63;;;;;;;0.62;100.00;101082.38;5089089;28;20035;-70
2023/12/16 10:06:07;;;;;;;53.53;30.55;;;;;;;0.83;100.00;101075.56;5096019;28;20500;-72
2023/12/16 10:08:37;;;;;;;75.38;39.63;;;;;;;1.04;100.00;101084.44;5107208;28;20027;-71
2023/12/16 10:11:04;;;;;;;47.55;27.45;;;;;;;1.05;100.00;101085.25;5100493;28;20699;-69
2023/12/16 10:13:32;;;;;;;58.22;30.50;;;;;;;1.22;100.00;101100.09;5097858;28;20530;-68
2023/12/16 10:15:59;;;;;;;60.35;34.95;;;;;;;1.31;100.00;101095.09;5091393;28;20484;-69
2023/12/16 10:18:27;;;;;;;37.55;23.75;;;;;;;1.22;100.00;101089.06;5102999;28;20705;-71
2023/12/16 10:20:55;;;;;;;37.60;22.80;;;;;;;1.25;100.00;101093.25;5092106;28;20020;-70
2023/12/16 10:23:21;;;;;;;56.30;32.72;;;;;;;1.25;100.00;101088.59;5103422;28;20028;-69
2023/12/16 10:25:46;;;;;;;56.30;34.38;;;;;;;1.00;100.00;101096.16;5097254;28;20098;-70
2023/12/16 10:28:12;;;;;;;51.22;30.02;;;;;;;1.15;100.00;101090.22;5094201;28;20023;-69
2023/12/16 10:30:37;;;;;;;54.58;29.38;;;;;;;1.14;100.00;101091.28;5079483;28;20089;-69
2023/12/16 10:33:03;;;;;;;116.13;52.83;;;;;;;1.06;100.00;101086.94;5100495;28;20023;-69
2023/12/16 10:35:33;;;;;;;138.88;66.00;;;;;;;1.14;100.00;101094.03;5089406;28;20027;-73
2023/12/16 10:37:59;;;;;;;116.55;56.75;;;;;;;1.18;100.00;101087.00;5088237;28;20023;-74
2023/12/16 10:40:26;;;;;;;115.32;54.47;;;;;;;1.32;100.00;101088.50;5078547;28;20051;-72
2023/12/16 10:42:51;;;;;;;83.93;40.75;;;;;;;1.61;100.00;101091.47;5088791;28;20032;-74
2023/12/16 10:45:17;;;;;;;56.30;30.70;;;;;;;1.63;100.00;101091.25;5090892;28;20028;-71
2023/12/16 10:47:43;;;;;;;41.33;25.17;;;;;;;1.63;100.00;101089.34;5109557;28;20080;-73
2023/12/16 10:50:12;;;;;;;47.42;29.55;;;;;;;1.78;100.00;101090.81;5091013;28;20046;-70
2023/12/16 10:52:51;;;;;;;49.63;29.25;;;;;;;1.79;100.00;101086.97;5088035;28;20443;-71
2023/12/16 10:55:42;;;;;;;54.72;34.28;;;;;;;1.98;100.00;101084.13;5089700;28;20024;-72
2023/12/16 10:59:09;;;;;;;57.80;35.90;;;;;;;2.17;100.00;101093.13;5104998;28;20030;-72
2023/12/16 11:01:44;;;;;;;63.03;36.15;;;;;;;1.94;100.00;101086.53;4975789;28;20308;-72
2023/12/16 11:04:12;;;;;;;44.45;21.75;;;;;;;2.03;100.00;101089.78;5095681;28;20035;-73
2023/12/16 11:06:46;;;;;;;33.05;18.88;;;;;;;1.76;100.00;101091.03;5083555;28;20032;-72
2023/12/16 11:09:13;;;;;;;45.53;23.85;;;;;;;1.84;100.00;101095.38;5101093;28;20058;-70